sensor_id;sensor_type;location;lat;lon;timestamp;temperature;humidity
22795;DHT22;11564;50.920;11.612;2023-10-09T00:00:24;11.60;99.90
22795;DHT22;11564;50.920;11.612;2023-10-09T00:03:22;11.70;99.90
22795;DHT22;11564;50.920;11.612;2023-10-09T00:05:49;11.70;99.90
22795;DHT22;11564;50.920;11.612;2023-10-09T00:08:18;11.80;99.90
22795;DHT22;11564;50.920;11.612;2023-10-09T00:10:59;11.80;99.90
22795;DHT22;11564;50.920;11.612;2023-10-09T00:13:39;11.80;99.90
22795;DHT22;11564;50.920;11.612;2023-10-09T00:16:14;11.80;99.90
22795;DHT22;11564;50.920;11.612;2023-10-09T00:18:49;11.80;99.90
22795;DHT22;11564;50.920;11.612;2023-10-09T00:21:15;11.90;99.90
22795;DHT22;11564;50.920;11.612;2023-10-09T00:23:46;11.90;99.90
22795;DHT22;11564;50.920;11.612;2023-10-09T00:26:18;12.00;99.90
22795;DHT22;11564;50.920;11.612;2023-10-09T00:28:45;12.00;99.90
22795;DHT22;11564;50.920;11.612;2023-10-09T00:31:13;12.10;99.90
22795;DHT22;11564;50.920;11.612;2023-10-09T00:33:42;12.10;99.90
22795;DHT22;11564;50.920;11.612;2023-10-09T00:36:08;12.10;99.90
22795;DHT22;11564;50.920;11.612;2023-10-09T00:38:35;12.10;99.90
22795;DHT22;11564;50.920;11.612;2023-10-09T00:41:00;12.10;99.90
22795;DHT22;11564;50.920;11.612;2023-10-09T00:43:35;12.20;99.90
22795;DHT22;11564;50.920;11.612;2023-10-09T00:46:04;12.20;99.90
22795;DHT22;11564;50.920;11.612;2023-10-09T00:48:42;12.20;99.90
22795;DHT22;11564;50.920;11.612;2023-10-09T00:51:08;12.20;99.90
22795;DHT22;11564;50.920;11.612;2023-10-09T00:54:05;12.20;99.90
22795;DHT22;11564;50.920;11.612;2023-10-09T00:56:44;12.20;99.90
22795;DHT22;11564;50.920;11.612;2023-10-09T00:59:17;12.20;99.90
22795;DHT22;11564;50.920;11.612;2023-10-09T01:01:46;12.20;99.90
22795;DHT22;11564;50.920;11.612;2023-10-09T01:04:30;12.30;99.90
22795;DHT22;11564;50.920;11.612;2023-10-09T01:07:02;12.30;99.90
22795;DHT22;11564;50.920;11.612;2023-10-09T01:09:33;12.30;99.90
22795;DHT22;11564;50.920;11.612;2023-10-09T01:12:08;12.40;99.90
22795;DHT22;11564;50.920;11.612;2023-10-09T01:14:45;12.40;99.90
22795;DHT22;11564;50.920;11.612;2023-10-09T01:17:11;12.40;99.90
22795;DHT22;11564;50.920;11.612;2023-10-09T01:19:37;12.40;99.90
22795;DHT22;11564;50.920;11.612;2023-10-09T01:22:03;12.40;99.90
22795;DHT22;11564;50.920;11.612;2023-10-09T01:24:41;12.30;99.90
22795;DHT22;11564;50.920;11.612;2023-10-09T01:27:07;12.40;99.90
22795;DHT22;11564;50.920;11.612;2023-10-09T01:29:41;12.50;99.90
22795;DHT22;11564;50.920;11.612;2023-10-09T01:32:07;12.50;99.90
22795;DHT22;11564;50.920;11.612;2023-10-09T01:34:41;12.50;99.90
22795;DHT22;11564;50.920;11.612;2023-10-09T01:37:11;12.40;99.90
22795;DHT22;11564;50.920;11.612;2023-10-09T01:39:54;12.40;99.90
22795;DHT22;11564;50.920;11.612;2023-10-09T01:42:23;12.30;99.90
22795;DHT22;11564;50.920;11.612;2023-10-09T01:45:11;12.30;99.90
22795;DHT22;11564;50.920;11.612;2023-10-09T01:47:37;12.20;99.90
22795;DHT22;11564;50.920;11.612;2023-10-09T01:50:06;12.20;99.90
22795;DHT22;11564;50.920;11.612;2023-10-09T01:52:37;12.00;99.90
22795;DHT22;11564;50.920;11.612;2023-10-09T01:55:03;11.80;99.90
22795;DHT22;11564;50.920;11.612;2023-10-09T01:57:40;11.70;99.90
22795;DHT22;11564;50.920;11.612;2023-10-09T02:00:10;11.60;99.90
22795;DHT22;11564;50.920;11.612;2023-10-09T02:02:41;11.50;99.90
22795;DHT22;11564;50.920;11.612;2023-10-09T02:05:10;11.30;99.90
22795;DHT22;11564;50.920;11.612;2023-10-09T02:07:42;11.20;99.90
22795;DHT22;11564;50.920;11.612;2023-10-09T02:10:17;11.20;99.90
22795;DHT22;11564;50.920;11.612;2023-10-09T02:13:01;11.00;99.90
22795;DHT22;11564;50.920;11.612;2023-10-09T02:15:32;10.90;99.90
22795;DHT22;11564;50.920;11.612;2023-10-09T02:18:14;10.80;99.90
22795;DHT22;11564;50.920;11.612;2023-10-09T02:23:43;10.60;99.90
22795;DHT22;11564;50.920;11.612;2023-10-09T02:26:14;10.60;99.90
22795;DHT22;11564;50.920;11.612;2023-10-09T02:28:45;10.50;99.90
22795;DHT22;11564;50.920;11.612;2023-10-09T02:31:18;10.40;99.90
22795;DHT22;11564;50.920;11.612;2023-10-09T02:33:47;10.40;99.90
22795;DHT22;11564;50.920;11.612;2023-10-09T02:36:15;10.30;99.90
22795;DHT22;11564;50.920;11.612;2023-10-09T02:38:40;10.30;99.90
22795;DHT22;11564;50.920;11.612;2023-10-09T02:41:07;10.30;99.90
22795;DHT22;11564;50.920;11.612;2023-10-09T02:43:39;10.40;99.90
22795;DHT22;11564;50.920;11.612;2023-10-09T02:46:15;10.40;99.90
22795;DHT22;11564;50.920;11.612;2023-10-09T02:48:44;10.40;99.90
22795;DHT22;11564;50.920;11.612;2023-10-09T02:51:19;10.40;99.90
22795;DHT22;11564;50.920;11.612;2023-10-09T02:54:08;10.40;99.90
22795;DHT22;11564;50.920;11.612;2023-10-09T02:56:49;10.50;99.90
22795;DHT22;11564;50.920;11.612;2023-10-09T02:59:22;10.50;99.90
22795;DHT22;11564;50.920;11.612;2023-10-09T03:01:48;10.60;99.90
22795;DHT22;11564;50.920;11.612;2023-10-09T03:04:13;10.60;99.90
22795;DHT22;11564;50.920;11.612;2023-10-09T03:06:40;10.60;99.90
22795;DHT22;11564;50.920;11.612;2023-10-09T03:09:16;10.60;99.90
22795;DHT22;11564;50.920;11.612;2023-10-09T03:11:45;10.60;99.90
22795;DHT22;11564;50.920;11.612;2023-10-09T03:14:12;10.60;99.90
22795;DHT22;11564;50.920;11.612;2023-10-09T03:16:37;10.60;99.90
22795;DHT22;11564;50.920;11.612;2023-10-09T03:19:03;10.60;99.90
22795;DHT22;11564;50.920;11.612;2023-10-09T03:21:29;10.70;99.90
22795;DHT22;11564;50.920;11.612;2023-10-09T03:23:54;10.70;99.90
22795;DHT22;11564;50.920;11.612;2023-10-09T03:26:21;10.80;99.90
22795;DHT22;11564;50.920;11.612;2023-10-09T03:28:51;10.80;99.90
22795;DHT22;11564;50.920;11.612;2023-10-09T03:31:17;10.90;99.90
22795;DHT22;11564;50.920;11.612;2023-10-09T03:33:43;11.00;99.90
22795;DHT22;11564;50.920;11.612;2023-10-09T03:36:08;11.00;99.90
22795;DHT22;11564;50.920;11.612;2023-10-09T03:38:37;11.00;99.90
22795;DHT22;11564;50.920;11.612;2023-10-09T03:41:04;11.00;99.90
22795;DHT22;11564;50.920;11.612;2023-10-09T03:43:34;11.00;99.90
22795;DHT22;11564;50.920;11.612;2023-10-09T03:46:10;10.90;99.90
22795;DHT22;11564;50.920;11.612;2023-10-09T03:48:48;10.90;99.90
22795;DHT22;11564;50.920;11.612;2023-10-09T03:51:14;10.80;99.90
22795;DHT22;11564;50.920;11.612;2023-10-09T03:53:51;10.70;99.90
22795;DHT22;11564;50.920;11.612;2023-10-09T03:56:19;10.60;99.90
22795;DHT22;11564;50.920;11.612;2023-10-09T03:58:50;10.50;99.90
22795;DHT22;11564;50.920;11.612;2023-10-09T04:01:19;10.40;99.90
22795;DHT22;11564;50.920;11.612;2023-10-09T04:03:54;10.40;99.90
22795;DHT22;11564;50.920;11.612;2023-10-09T04:06:23;10.50;99.90
22795;DHT22;11564;50.920;11.612;2023-10-09T04:08:50;10.50;99.90
22795;DHT22;11564;50.920;11.612;2023-10-09T04:11:17;10.50;99.90
22795;DHT22;11564;50.920;11.612;2023-10-09T04:13:43;10.60;99.90
22795;DHT22;11564;50.920;11.612;2023-10-09T04:16:11;10.60;99.90
22795;DHT22;11564;50.920;11.612;2023-10-09T04:18:56;10.60;99.90
22795;DHT22;11564;50.920;11.612;2023-10-09T04:21:24;10.60;99.90
22795;DHT22;11564;50.920;11.612;2023-10-09T04:24:03;10.60;99.90
22795;DHT22;11564;50.920;11.612;2023-10-09T04:26:40;10.60;99.90
22795;DHT22;11564;50.920;11.612;2023-10-09T04:29:15;10.60;99.90
22795;DHT22;11564;50.920;11.612;2023-10-09T04:32:00;10.70;99.90
22795;DHT22;11564;50.920;11.612;2023-10-09T04:34:26;10.70;99.90
22795;DHT22;11564;50.920;11.612;2023-10-09T04:36:57;10.80;99.90
22795;DHT22;11564;50.920;11.612;2023-10-09T04:39:43;10.80;99.90
22795;DHT22;11564;50.920;11.612;2023-10-09T04:42:12;10.90;99.90
22795;DHT22;11564;50.920;11.612;2023-10-09T04:44:44;10.90;99.90
22795;DHT22;11564;50.920;11.612;2023-10-09T04:47:29;11.00;99.90
22795;DHT22;11564;50.920;11.612;2023-10-09T04:50:15;11.30;99.90
22795;DHT22;11564;50.920;11.612;2023-10-09T04:53:03;11.40;99.90
22795;DHT22;11564;50.920;11.612;2023-10-09T04:55:41;11.40;99.90
22795;DHT22;11564;50.920;11.612;2023-10-09T04:58:09;11.50;99.90
22795;DHT22;11564;50.920;11.612;2023-10-09T05:00:39;11.50;99.90
22795;DHT22;11564;50.920;11.612;2023-10-09T05:03:07;11.50;99.90
22795;DHT22;11564;50.920;11.612;2023-10-09T05:05:35;11.30;99.90
22795;DHT22;11564;50.920;11.612;2023-10-09T05:11:01;11.30;99.90
22795;DHT22;11564;50.920;11.612;2023-10-09T05:13:35;11.30;99.90
22795;DHT22;11564;50.920;11.612;2023-10-09T05:16:07;11.40;99.90
22795;DHT22;11564;50.920;11.612;2023-10-09T05:18:39;11.50;99.90
22795;DHT22;11564;50.920;11.612;2023-10-09T05:21:04;11.60;99.90
22795;DHT22;11564;50.920;11.612;2023-10-09T05:23:39;11.70;99.90
22795;DHT22;11564;50.920;11.612;2023-10-09T05:26:30;11.80;99.90
22795;DHT22;11564;50.920;11.612;2023-10-09T05:29:11;11.90;99.90
22795;DHT22;11564;50.920;11.612;2023-10-09T05:32:04;12.00;99.90
22795;DHT22;11564;50.920;11.612;2023-10-09T05:34:40;12.10;99.90
22795;DHT22;11564;50.920;11.612;2023-10-09T05:37:41;12.10;99.90
22795;DHT22;11564;50.920;11.612;2023-10-09T05:40:10;12.30;99.90
22795;DHT22;11564;50.920;11.612;2023-10-09T05:42:41;12.30;99.90
22795;DHT22;11564;50.920;11.612;2023-10-09T05:45:16;12.50;99.90
22795;DHT22;11564;50.920;11.612;2023-10-09T05:47:45;12.60;99.90
22795;DHT22;11564;50.920;11.612;2023-10-09T05:50:17;12.90;99.90
22795;DHT22;11564;50.920;11.612;2023-10-09T05:52:42;13.00;99.90
22795;DHT22;11564;50.920;11.612;2023-10-09T05:55:28;13.10;99.90
22795;DHT22;11564;50.920;11.612;2023-10-09T05:58:13;13.10;99.90
22795;DHT22;11564;50.920;11.612;2023-10-09T06:00:57;13.10;99.90
22795;DHT22;11564;50.920;11.612;2023-10-09T06:03:41;13.30;99.90
22795;DHT22;11564;50.920;11.612;2023-10-09T06:06:39;13.30;99.90
22795;DHT22;11564;50.920;11.612;2023-10-09T06:09:10;13.30;99.90
22795;DHT22;11564;50.920;11.612;2023-10-09T06:11:39;13.30;99.90
22795;DHT22;11564;50.920;11.612;2023-10-09T06:14:04;13.50;99.90
22795;DHT22;11564;50.920;11.612;2023-10-09T06:16:31;13.60;99.90
22795;DHT22;11564;50.920;11.612;2023-10-09T06:19:11;13.80;99.90
22795;DHT22;11564;50.920;11.612;2023-10-09T06:21:55;13.90;99.90
22795;DHT22;11564;50.920;11.612;2023-10-09T06:24:41;14.10;99.90
22795;DHT22;11564;50.920;11.612;2023-10-09T06:27:19;14.20;99.90
22795;DHT22;11564;50.920;11.612;2023-10-09T06:29:57;14.30;99.90
22795;DHT22;11564;50.920;11.612;2023-10-09T06:32:37;14.40;99.90
22795;DHT22;11564;50.920;11.612;2023-10-09T06:35:03;14.50;99.90
22795;DHT22;11564;50.920;11.612;2023-10-09T06:37:55;14.50;99.90
22795;DHT22;11564;50.920;11.612;2023-10-09T06:40:30;14.90;99.90
22795;DHT22;11564;50.920;11.612;2023-10-09T06:43:05;15.10;99.90
22795;DHT22;11564;50.920;11.612;2023-10-09T06:45:38;15.20;99.90
22795;DHT22;11564;50.920;11.612;2023-10-09T06:48:10;15.20;99.90
22795;DHT22;11564;50.920;11.612;2023-10-09T06:51:02;15.20;99.90
22795;DHT22;11564;50.920;11.612;2023-10-09T06:53:46;15.30;99.90
22795;DHT22;11564;50.920;11.612;2023-10-09T06:56:21;15.30;99.90
22795;DHT22;11564;50.920;11.612;2023-10-09T06:58:52;15.40;99.90
22795;DHT22;11564;50.920;11.612;2023-10-09T07:01:21;15.40;99.90
22795;DHT22;11564;50.920;11.612;2023-10-09T07:03:53;15.40;99.90
22795;DHT22;11564;50.920;11.612;2023-10-09T07:06:19;15.50;99.90
22795;DHT22;11564;50.920;11.612;2023-10-09T07:09:11;15.50;99.90
22795;DHT22;11564;50.920;11.612;2023-10-09T07:11:42;15.60;99.90
22795;DHT22;11564;50.920;11.612;2023-10-09T07:14:18;15.60;99.90
22795;DHT22;11564;50.920;11.612;2023-10-09T07:19:26;15.70;99.90
22795;DHT22;11564;50.920;11.612;2023-10-09T07:22:23;15.70;99.90
22795;DHT22;11564;50.920;11.612;2023-10-09T07:24:57;15.80;99.90
22795;DHT22;11564;50.920;11.612;2023-10-09T07:27:24;15.80;99.90
22795;DHT22;11564;50.920;11.612;2023-10-09T07:30:08;15.90;99.90
22795;DHT22;11564;50.920;11.612;2023-10-09T07:32:54;15.90;99.90
22795;DHT22;11564;50.920;11.612;2023-10-09T07:35:20;16.10;99.90
22795;DHT22;11564;50.920;11.612;2023-10-09T07:38:04;16.20;99.90
22795;DHT22;11564;50.920;11.612;2023-10-09T07:40:32;16.30;99.90
22795;DHT22;11564;50.920;11.612;2023-10-09T07:43:17;16.40;99.90
22795;DHT22;11564;50.920;11.612;2023-10-09T07:45:43;16.30;99.90
22795;DHT22;11564;50.920;11.612;2023-10-09T07:48:26;16.30;99.90
22795;DHT22;11564;50.920;11.612;2023-10-09T07:50:51;16.40;99.90
22795;DHT22;11564;50.920;11.612;2023-10-09T07:53:22;16.30;99.90
22795;DHT22;11564;50.920;11.612;2023-10-09T07:55:54;16.40;99.90
22795;DHT22;11564;50.920;11.612;2023-10-09T07:58:27;16.50;99.90
22795;DHT22;11564;50.920;11.612;2023-10-09T08:00:54;16.50;99.90
22795;DHT22;11564;50.920;11.612;2023-10-09T08:03:38;16.50;99.90
22795;DHT22;11564;50.920;11.612;2023-10-09T08:06:04;16.50;99.90
22795;DHT22;11564;50.920;11.612;2023-10-09T08:08:53;16.40;99.90
22795;DHT22;11564;50.920;11.612;2023-10-09T08:11:30;16.50;99.90
22795;DHT22;11564;50.920;11.612;2023-10-09T08:14:08;16.50;99.90
22795;DHT22;11564;50.920;11.612;2023-10-09T08:16:54;16.50;99.90
22795;DHT22;11564;50.920;11.612;2023-10-09T08:19:37;16.40;99.90
22795;DHT22;11564;50.920;11.612;2023-10-09T08:22:17;16.30;99.90
22795;DHT22;11564;50.920;11.612;2023-10-09T08:25:03;16.20;99.90
22795;DHT22;11564;50.920;11.612;2023-10-09T08:27:29;15.90;99.90
22795;DHT22;11564;50.920;11.612;2023-10-09T08:32:38;15.50;99.90
22795;DHT22;11564;50.920;11.612;2023-10-09T08:35:05;15.30;99.90
22795;DHT22;11564;50.920;11.612;2023-10-09T08:37:36;15.20;99.90
22795;DHT22;11564;50.920;11.612;2023-10-09T08:40:02;15.20;99.90
22795;DHT22;11564;50.920;11.612;2023-10-09T08:42:32;15.20;99.90
22795;DHT22;11564;50.920;11.612;2023-10-09T08:44:59;15.10;99.90
22795;DHT22;11564;50.920;11.612;2023-10-09T08:47:29;15.00;99.90
22795;DHT22;11564;50.920;11.612;2023-10-09T08:49:55;15.00;99.90
22795;DHT22;11564;50.920;11.612;2023-10-09T08:52:21;15.10;99.90
22795;DHT22;11564;50.920;11.612;2023-10-09T08:54:47;15.10;99.90
22795;DHT22;11564;50.920;11.612;2023-10-09T08:57:14;15.10;99.90
22795;DHT22;11564;50.920;11.612;2023-10-09T08:59:40;15.20;99.90
22795;DHT22;11564;50.920;11.612;2023-10-09T09:02:07;15.30;99.90
22795;DHT22;11564;50.920;11.612;2023-10-09T09:04:37;15.30;99.90
22795;DHT22;11564;50.920;11.612;2023-10-09T09:07:04;15.30;99.90
22795;DHT22;11564;50.920;11.612;2023-10-09T09:09:30;15.30;99.90
22795;DHT22;11564;50.920;11.612;2023-10-09T09:11:57;15.20;99.90
22795;DHT22;11564;50.920;11.612;2023-10-09T09:14:37;15.20;99.90
22795;DHT22;11564;50.920;11.612;2023-10-09T09:17:04;15.10;99.90
22795;DHT22;11564;50.920;11.612;2023-10-09T09:19:31;15.10;99.90
22795;DHT22;11564;50.920;11.612;2023-10-09T09:21:57;15.10;99.90
22795;DHT22;11564;50.920;11.612;2023-10-09T09:24:36;15.10;99.90
22795;DHT22;11564;50.920;11.612;2023-10-09T09:27:03;15.00;99.90
22795;DHT22;11564;50.920;11.612;2023-10-09T09:29:57;15.00;99.90
22795;DHT22;11564;50.920;11.612;2023-10-09T09:32:32;15.00;99.90
22795;DHT22;11564;50.920;11.612;2023-10-09T09:35:01;14.90;99.90
22795;DHT22;11564;50.920;11.612;2023-10-09T09:37:28;14.90;99.90
22795;DHT22;11564;50.920;11.612;2023-10-09T09:39:54;14.90;99.90
22795;DHT22;11564;50.920;11.612;2023-10-09T09:42:20;14.90;99.90
22795;DHT22;11564;50.920;11.612;2023-10-09T09:44:53;14.90;99.90
22795;DHT22;11564;50.920;11.612;2023-10-09T09:47:21;14.90;99.90
22795;DHT22;11564;50.920;11.612;2023-10-09T09:49:53;14.90;99.90
22795;DHT22;11564;50.920;11.612;2023-10-09T09:52:31;14.90;99.90
22795;DHT22;11564;50.920;11.612;2023-10-09T09:55:07;14.90;99.90
22795;DHT22;11564;50.920;11.612;2023-10-09T09:57:40;14.90;99.90
22795;DHT22;11564;50.920;11.612;2023-10-09T10:00:07;15.00;99.90
22795;DHT22;11564;50.920;11.612;2023-10-09T10:02:43;15.00;99.90
22795;DHT22;11564;50.920;11.612;2023-10-09T10:05:10;15.00;99.90
22795;DHT22;11564;50.920;11.612;2023-10-09T10:07:37;15.10;99.90
22795;DHT22;11564;50.920;11.612;2023-10-09T10:12:52;15.20;99.90
22795;DHT22;11564;50.920;11.612;2023-10-09T10:18:10;15.50;99.90
22795;DHT22;11564;50.920;11.612;2023-10-09T10:23:30;15.70;99.90
22795;DHT22;11564;50.920;11.612;2023-10-09T10:26:15;15.70;99.90
22795;DHT22;11564;50.920;11.612;2023-10-09T10:28:41;15.80;99.90
22795;DHT22;11564;50.920;11.612;2023-10-09T10:31:11;15.60;99.90
22795;DHT22;11564;50.920;11.612;2023-10-09T10:36:24;15.70;99.90
22795;DHT22;11564;50.920;11.612;2023-10-09T10:39:25;15.70;99.90
22795;DHT22;11564;50.920;11.612;2023-10-09T10:41:53;15.60;99.90
22795;DHT22;11564;50.920;11.612;2023-10-09T10:44:26;15.60;99.90
22795;DHT22;11564;50.920;11.612;2023-10-09T10:47:08;15.60;99.90
22795;DHT22;11564;50.920;11.612;2023-10-09T10:49:50;15.70;99.90
22795;DHT22;11564;50.920;11.612;2023-10-09T10:52:20;15.70;99.90
22795;DHT22;11564;50.920;11.612;2023-10-09T10:54:46;15.70;99.90
22795;DHT22;11564;50.920;11.612;2023-10-09T10:57:21;15.70;99.90
22795;DHT22;11564;50.920;11.612;2023-10-09T11:00:09;15.80;99.90
22795;DHT22;11564;50.920;11.612;2023-10-09T11:02:58;15.80;99.90
22795;DHT22;11564;50.920;11.612;2023-10-09T11:05:41;15.90;99.90
22795;DHT22;11564;50.920;11.612;2023-10-09T11:08:10;15.90;99.90
22795;DHT22;11564;50.920;11.612;2023-10-09T11:10:36;16.10;99.90
22795;DHT22;11564;50.920;11.612;2023-10-09T11:13:24;16.10;99.90
22795;DHT22;11564;50.920;11.612;2023-10-09T11:15:58;16.10;99.90
22795;DHT22;11564;50.920;11.612;2023-10-09T11:18:49;16.10;99.90
22795;DHT22;11564;50.920;11.612;2023-10-09T11:21:15;16.10;99.90
22795;DHT22;11564;50.920;11.612;2023-10-09T11:23:41;16.20;99.90
22795;DHT22;11564;50.920;11.612;2023-10-09T11:26:18;16.20;99.90
22795;DHT22;11564;50.920;11.612;2023-10-09T11:32:00;16.20;99.90
22795;DHT22;11564;50.920;11.612;2023-10-09T11:34:26;16.10;99.90
22795;DHT22;11564;50.920;11.612;2023-10-09T11:37:01;16.20;99.90
22795;DHT22;11564;50.920;11.612;2023-10-09T11:39:28;16.10;99.90
22795;DHT22;11564;50.920;11.612;2023-10-09T11:42:06;16.20;99.90
22795;DHT22;11564;50.920;11.612;2023-10-09T11:44:36;16.20;99.90
22795;DHT22;11564;50.920;11.612;2023-10-09T11:47:05;16.20;99.90
22795;DHT22;11564;50.920;11.612;2023-10-09T11:49:52;16.20;99.90
22795;DHT22;11564;50.920;11.612;2023-10-09T11:52:36;16.20;99.90
22795;DHT22;11564;50.920;11.612;2023-10-09T11:55:22;16.20;99.90
22795;DHT22;11564;50.920;11.612;2023-10-09T11:57:51;16.20;99.90
22795;DHT22;11564;50.920;11.612;2023-10-09T12:00:16;16.10;99.90
22795;DHT22;11564;50.920;11.612;2023-10-09T12:02:55;16.00;99.90
22795;DHT22;11564;50.920;11.612;2023-10-09T12:05:21;16.00;99.90
22795;DHT22;11564;50.920;11.612;2023-10-09T12:07:46;16.00;99.90
22795;DHT22;11564;50.920;11.612;2023-10-09T12:10:12;16.10;99.90
22795;DHT22;11564;50.920;11.612;2023-10-09T12:12:40;16.20;99.90
22795;DHT22;11564;50.920;11.612;2023-10-09T12:15:11;16.20;99.90
22795;DHT22;11564;50.920;11.612;2023-10-09T12:17:43;16.30;99.90
22795;DHT22;11564;50.920;11.612;2023-10-09T12:20:09;16.40;99.90
22795;DHT22;11564;50.920;11.612;2023-10-09T12:22:40;16.50;99.90
22795;DHT22;11564;50.920;11.612;2023-10-09T12:25:06;16.60;99.90
22795;DHT22;11564;50.920;11.612;2023-10-09T12:27:34;16.60;99.90
22795;DHT22;11564;50.920;11.612;2023-10-09T12:30:00;16.60;99.90
22795;DHT22;11564;50.920;11.612;2023-10-09T12:32:28;16.80;99.90
22795;DHT22;11564;50.920;11.612;2023-10-09T12:34:54;16.90;99.90
22795;DHT22;11564;50.920;11.612;2023-10-09T12:37:21;17.00;99.90
22795;DHT22;11564;50.920;11.612;2023-10-09T12:39:46;17.00;99.90
22795;DHT22;11564;50.920;11.612;2023-10-09T12:42:13;17.10;99.90
22795;DHT22;11564;50.920;11.612;2023-10-09T12:44:38;17.10;99.90
22795;DHT22;11564;50.920;11.612;2023-10-09T12:47:08;17.00;99.90
22795;DHT22;11564;50.920;11.612;2023-10-09T12:49:36;16.90;99.90
22795;DHT22;11564;50.920;11.612;2023-10-09T12:52:09;16.90;99.90
22795;DHT22;11564;50.920;11.612;2023-10-09T12:54:44;17.00;99.90
22795;DHT22;11564;50.920;11.612;2023-10-09T12:57:13;17.00;99.90
22795;DHT22;11564;50.920;11.612;2023-10-09T12:59:41;17.00;99.90
22795;DHT22;11564;50.920;11.612;2023-10-09T13:02:14;17.10;99.90
22795;DHT22;11564;50.920;11.612;2023-10-09T13:04:57;17.10;99.90
22795;DHT22;11564;50.920;11.612;2023-10-09T13:07:22;17.10;99.90
22795;DHT22;11564;50.920;11.612;2023-10-09T13:09:48;17.10;99.90
22795;DHT22;11564;50.920;11.612;2023-10-09T13:12:32;17.00;99.90
22795;DHT22;11564;50.920;11.612;2023-10-09T13:14:58;16.90;99.90
22795;DHT22;11564;50.920;11.612;2023-10-09T13:17:23;16.80;99.90
22795;DHT22;11564;50.920;11.612;2023-10-09T13:19:52;16.70;99.90
22795;DHT22;11564;50.920;11.612;2023-10-09T13:22:18;16.60;99.90
22795;DHT22;11564;50.920;11.612;2023-10-09T13:24:43;16.60;99.90
22795;DHT22;11564;50.920;11.612;2023-10-09T13:27:09;16.80;99.90
22795;DHT22;11564;50.920;11.612;2023-10-09T13:29:36;16.80;99.90
22795;DHT22;11564;50.920;11.612;2023-10-09T13:32:05;16.90;99.90
22795;DHT22;11564;50.920;11.612;2023-10-09T13:34:39;17.00;99.90
22795;DHT22;11564;50.920;11.612;2023-10-09T13:37:10;17.00;99.90
22795;DHT22;11564;50.920;11.612;2023-10-09T13:39:42;16.90;99.90
22795;DHT22;11564;50.920;11.612;2023-10-09T13:42:21;16.90;99.90
22795;DHT22;11564;50.920;11.612;2023-10-09T13:44:50;17.00;99.90
22795;DHT22;11564;50.920;11.612;2023-10-09T13:47:19;16.90;99.90
22795;DHT22;11564;50.920;11.612;2023-10-09T13:49:48;16.80;99.90
22795;DHT22;11564;50.920;11.612;2023-10-09T13:52:18;16.70;99.90
22795;DHT22;11564;50.920;11.612;2023-10-09T13:54:45;16.60;99.90
22795;DHT22;11564;50.920;11.612;2023-10-09T13:57:13;16.50;99.90
22795;DHT22;11564;50.920;11.612;2023-10-09T13:59:40;16.50;99.90
22795;DHT22;11564;50.920;11.612;2023-10-09T14:02:08;16.50;99.90
22795;DHT22;11564;50.920;11.612;2023-10-09T14:04:35;16.50;99.90
22795;DHT22;11564;50.920;11.612;2023-10-09T14:07:00;16.40;99.90
22795;DHT22;11564;50.920;11.612;2023-10-09T14:09:27;16.30;99.90
22795;DHT22;11564;50.920;11.612;2023-10-09T14:11:56;16.20;99.90
22795;DHT22;11564;50.920;11.612;2023-10-09T14:14:32;16.20;99.90
22795;DHT22;11564;50.920;11.612;2023-10-09T14:16:58;16.20;99.90
22795;DHT22;11564;50.920;11.612;2023-10-09T14:19:24;16.00;99.90
22795;DHT22;11564;50.920;11.612;2023-10-09T14:21:49;16.00;99.90
22795;DHT22;11564;50.920;11.612;2023-10-09T14:24:16;15.80;99.90
22795;DHT22;11564;50.920;11.612;2023-10-09T14:26:43;15.90;99.90
22795;DHT22;11564;50.920;11.612;2023-10-09T14:29:11;15.80;99.90
22795;DHT22;11564;50.920;11.612;2023-10-09T14:31:42;15.70;99.90
22795;DHT22;11564;50.920;11.612;2023-10-09T14:34:07;15.80;99.90
22795;DHT22;11564;50.920;11.612;2023-10-09T14:36:34;15.70;99.90
22795;DHT22;11564;50.920;11.612;2023-10-09T14:39:00;15.60;99.90
22795;DHT22;11564;50.920;11.612;2023-10-09T14:41:26;15.60;99.90
22795;DHT22;11564;50.920;11.612;2023-10-09T14:43:53;15.50;99.90
22795;DHT22;11564;50.920;11.612;2023-10-09T14:46:19;15.40;99.90
22795;DHT22;11564;50.920;11.612;2023-10-09T14:48:51;15.30;99.90
22795;DHT22;11564;50.920;11.612;2023-10-09T14:51:22;15.20;99.90
22795;DHT22;11564;50.920;11.612;2023-10-09T14:53:58;15.20;99.90
22795;DHT22;11564;50.920;11.612;2023-10-09T14:56:24;15.20;99.90
22795;DHT22;11564;50.920;11.612;2023-10-09T14:58:55;15.20;99.90
22795;DHT22;11564;50.920;11.612;2023-10-09T15:01:21;15.20;99.90
22795;DHT22;11564;50.920;11.612;2023-10-09T15:03:49;15.10;99.90
22795;DHT22;11564;50.920;11.612;2023-10-09T15:06:18;15.00;99.90
22795;DHT22;11564;50.920;11.612;2023-10-09T15:08:44;15.00;99.90
22795;DHT22;11564;50.920;11.612;2023-10-09T15:11:10;14.90;99.90
22795;DHT22;11564;50.920;11.612;2023-10-09T15:13:36;14.80;99.90
22795;DHT22;11564;50.920;11.612;2023-10-09T15:16:04;14.80;99.90
22795;DHT22;11564;50.920;11.612;2023-10-09T15:18:30;14.70;99.90
22795;DHT22;11564;50.920;11.612;2023-10-09T15:20:58;14.70;99.90
22795;DHT22;11564;50.920;11.612;2023-10-09T15:23:24;14.80;99.90
22795;DHT22;11564;50.920;11.612;2023-10-09T15:25:50;14.80;99.90
22795;DHT22;11564;50.920;11.612;2023-10-09T15:28:18;14.80;99.90
22795;DHT22;11564;50.920;11.612;2023-10-09T15:30:44;14.80;99.90
22795;DHT22;11564;50.920;11.612;2023-10-09T15:33:15;14.90;99.90
22795;DHT22;11564;50.920;11.612;2023-10-09T15:35:45;14.80;99.90
22795;DHT22;11564;50.920;11.612;2023-10-09T15:38:12;14.90;99.90
22795;DHT22;11564;50.920;11.612;2023-10-09T15:40:39;14.90;99.90
22795;DHT22;11564;50.920;11.612;2023-10-09T15:43:06;14.90;99.90
22795;DHT22;11564;50.920;11.612;2023-10-09T15:45:32;14.90;99.90
22795;DHT22;11564;50.920;11.612;2023-10-09T15:48:05;14.90;99.90
22795;DHT22;11564;50.920;11.612;2023-10-09T15:50:31;14.90;99.90
22795;DHT22;11564;50.920;11.612;2023-10-09T15:53:00;14.90;99.90
22795;DHT22;11564;50.920;11.612;2023-10-09T15:55:26;15.00;99.90
22795;DHT22;11564;50.920;11.612;2023-10-09T15:57:52;15.00;99.90
22795;DHT22;11564;50.920;11.612;2023-10-09T16:00:18;15.10;99.90
22795;DHT22;11564;50.920;11.612;2023-10-09T16:02:47;15.00;99.90
22795;DHT22;11564;50.920;11.612;2023-10-09T16:05:12;15.00;99.90
22795;DHT22;11564;50.920;11.612;2023-10-09T16:07:39;15.00;99.90
22795;DHT22;11564;50.920;11.612;2023-10-09T16:10:05;15.00;99.90